Date,TemperatureHighF,TemperatureAvgF,TemperatureLowF,DewpointHighF,DewpointAvgF,DewpointLowF,HumidityHigh,HumidityAvg,HumidityLow,PressureMaxIn,PressureMinIn,WindSpeedMaxMPH,WindSpeedAvgMPH,GustSpeedMaxMPH,PrecipitationSumIn
2013-2-1,34.5,26.8,21.7,23.6,18.1,12.9,98,70,44,29.96,29.50,9,3,0,0.00
2013-2-2,31.1,23.5,16.3,23.8,15.0,10.5,98,71,50,30.02,29.76,7,2,0,0.00
2013-2-3,32.5,25.2,18.9,26.9,23.1,18.4,98,92,75,29.76,29.50,5,1,0,0.03
2013-2-4,31.1,25.1,19.9,23.9,17.2,14.4,98,73,55,29.70,29.52,9,2,0,0.00
2013-2-5,31.6,29.3,26.4,31.1,28.7,23.8,98,98,89,29.68,29.59,3,1,0,0.00
2013-2-6,40.1,32.0,24.3,33.7,26.4,15.3,98,81,60,30.07,29.63,7,1,0,0.03
2013-2-7,33.6,28.0,18.5,27.9,19.0,12.9,90,69,56,30.21,30.02,5,1,0,0.00
2013-2-8,35.1,32.7,28.4,34.0,31.8,27.9,98,96,85,30.02,29.36,9,3,0,0.27
2013-2-9,34.5,27.8,17.1,29.5,22.4,11.7,98,81,59,30.07,29.46,0,0,0,0.00
2013-2-10,41.0,24.3,6.6,26.1,17.6,6.2,98,78,43,30.20,30.04,0,0,0,0.33
2013-2-11,43.3,35.9,26.8,42.8,35.4,26.3,98,98,98,30.03,29.37,0,0,0,1.01
2013-2-12,46.9,38.6,27.9,36.4,33.0,27.4,98,81,63,29.69,29.43,7,2,0,0.06
2013-2-13,43.7,33.2,20.3,35.6,29.6,19.8,98,88,66,29.68,29.39,4,0,0,0.05
2013-2-14,47.7,36.1,27.0,39.3,32.1,26.5,98,87,57,29.72,29.43,4,1,0,0.02
2013-2-15,56.1,39.8,25.0,43.4,35.1,24.5,98,85,58,29.73,29.62,4,1,0,0.00
2013-2-16,41.0,35.7,30.0,38.9,31.3,20.0,98,85,66,29.69,29.45,5,2,0,0.06
2013-2-17,33.1,26.7,17.1,19.5,13.0,5.6,68,56,45,29.74,29.39,9,4,0,0.00
2013-2-18,35.8,24.6,15.3,19.5,13.0,5.9,77,62,45,29.97,29.75,9,2,0,0.00
2013-2-19,49.1,35.6,20.3,44.5,32.8,17.8,98,90,65,29.91,29.39,8,2,0,0.38
2013-2-20,35.6,30.0,24.3,31.0,20.7,15.3,83,68,57,29.72,29.45,9,4,0,0.00
2013-2-21,36.5,28.2,22.3,23.3,19.1,15.0,79,69,57,30.00,29.70,9,3,0,0.00
2013-2-22,38.3,30.2,21.6,36.0,26.0,18.3,98,84,71,30.11,29.99,5,1,0,0.00
2013-2-23,43.3,39.7,36.3,42.8,39.2,35.8,98,98,98,29.99,29.52,7,2,0,0.63
2013-2-24,50.2,39.9,32.5,48.2,37.2,28.2,98,90,74,29.69,29.46,7,2,0,0.02
2013-2-25,46.0,38.1,24.6,36.8,33.7,24.1,98,85,70,29.95,29.71,5,2,0,0.00
2013-2-26,45.3,39.8,27.0,42.7,37.7,26.5,98,92,83,30.00,29.58,11,4,0,0.18
2013-2-27,49.3,42.3,37.2,48.8,41.8,36.7,98,98,98,29.58,29.20,11,3,0,1.37
2013-2-28,52.2,42.1,33.4,47.0,39.5,32.9,98,91,71,29.34,29.26,6,1,0,0.00